createdAt,value
2019-05-01T00:02:44.819Z,78.85
2019-05-01T00:05:28.478Z,77.97
2019-05-01T00:08:04.489Z,78.46
2019-05-01T00:10:39.680Z,78.64
2019-05-01T00:13:14.946Z,78.92
2019-05-01T00:15:50.535Z,79.82
2019-05-01T00:18:26.164Z,79.21
2019-05-01T00:21:01.731Z,79.57
2019-05-01T00:24:12.215Z,79.43
2019-05-01T00:26:47.526Z,79.12
2019-05-01T00:29:43.807Z,78.63
2019-05-01T00:32:18.863Z,79.50
2019-05-01T00:34:54.013Z,79.04
2019-05-01T00:37:29.223Z,79.16
2019-05-01T00:40:04.358Z,79.80
2019-05-01T00:42:39.341Z,79.56
2019-05-01T00:45:14.320Z,79.57
2019-05-01T00:47:49.519Z,79.13
2019-05-01T00:50:24.497Z,78.37
2019-05-01T00:53:00.583Z,79.18
2019-05-01T00:55:49.413Z,79.70
2019-05-01T00:59:01.614Z,78.77
2019-05-01T01:01:54.020Z,78.56
2019-05-01T01:04:29.193Z,77.84
2019-05-01T01:07:04.166Z,78.32
2019-05-01T01:09:39.922Z,77.83
2019-05-01T01:12:14.925Z,77.66
2019-05-01T01:14:49.935Z,78.69
2019-05-01T01:17:24.949Z,77.41
2019-05-01T01:19:59.924Z,76.92
2019-05-01T01:22:38.291Z,77.55
2019-05-01T01:25:14.092Z,78.15
2019-05-01T01:27:49.711Z,78.74
2019-05-01T01:30:24.773Z,77.92
2019-05-01T01:32:59.955Z,76.60
2019-05-01T01:35:35.229Z,77.08
2019-05-01T01:38:11.043Z,76.92
2019-05-01T01:40:46.235Z,78.11
2019-05-01T01:43:50.038Z,78.16
2019-05-01T01:46:27.371Z,77.43
2019-05-01T01:49:04.315Z,77.24
2019-05-01T01:51:40.075Z,77.85
2019-05-01T01:54:15.390Z,77.40
2019-05-01T01:56:51.081Z,78.46
2019-05-01T01:59:26.872Z,77.40
2019-05-01T02:02:18.947Z,77.54
2019-05-01T02:05:04.021Z,77.76
2019-05-01T02:07:39.283Z,77.61
2019-05-01T02:10:15.024Z,78.43
2019-05-01T02:12:50.175Z,76.92
2019-05-01T02:15:25.278Z,77.81
2019-05-01T02:18:00.310Z,77.51
2019-05-01T02:20:35.303Z,77.56
2019-05-01T02:23:10.322Z,77.76
2019-05-01T02:25:45.630Z,78.18
2019-05-01T02:28:30.108Z,78.14
2019-05-01T02:31:29.623Z,77.52
2019-05-01T02:34:06.648Z,77.83
2019-05-01T02:36:44.024Z,77.78
2019-05-01T02:39:22.243Z,77.87
2019-05-01T02:42:01.565Z,78.17
2019-05-01T02:44:45.722Z,77.39
2019-05-01T02:47:27.391Z,77.39
2019-05-01T02:50:12.355Z,77.26
2019-05-01T02:52:47.640Z,77.15
2019-05-01T02:55:40.525Z,78.78
2019-05-01T02:58:16.112Z,78.12
2019-05-01T03:00:51.267Z,78.02
2019-05-01T03:04:00.916Z,79.17
2019-05-01T03:06:38.822Z,78.24
2019-05-01T03:09:14.077Z,78.03
2019-05-01T03:11:52.468Z,78.16
2019-05-01T03:14:31.952Z,78.25
2019-05-01T03:17:28.315Z,78.01
2019-05-01T03:20:23.506Z,77.79
2019-05-01T03:23:26.561Z,77.79
2019-05-01T03:26:02.629Z,78.48
2019-05-01T03:28:38.558Z,78.73
2019-05-01T03:31:17.185Z,78.71
2019-05-01T03:33:52.424Z,77.96
2019-05-01T03:36:27.703Z,78.73
2019-05-01T03:39:03.549Z,79.43
2019-05-01T03:41:38.884Z,79.02
2019-05-01T03:44:14.047Z,78.00
2019-05-01T03:46:49.535Z,78.64
2019-05-01T03:49:25.192Z,77.21
2019-05-01T03:52:10.100Z,77.08
2019-05-01T03:54:45.357Z,78.00
2019-05-01T03:57:20.663Z,78.51
2019-05-01T03:59:55.812Z,79.08
2019-05-01T04:02:38.402Z,78.68
2019-05-01T04:05:17.027Z,79.32
2019-05-01T04:07:55.908Z,79.79
2019-05-01T04:10:30.858Z,79.60
2019-05-01T04:13:07.012Z,79.11
2019-05-01T04:15:45.465Z,79.18
2019-05-01T04:18:21.851Z,78.96
2019-05-01T04:20:58.818Z,77.47
2019-05-01T04:23:35.210Z,78.24
2019-05-01T04:26:13.263Z,78.78
2019-05-01T04:28:55.099Z,77.80
2019-05-01T04:31:58.438Z,78.12
2019-05-01T04:34:52.933Z,77.77
2019-05-01T04:37:28.096Z,77.67
2019-05-01T04:40:03.278Z,77.87
2019-05-01T04:42:38.241Z,77.70
2019-05-01T04:45:13.968Z,78.29
2019-05-01T04:47:49.329Z,78.33
2019-05-01T04:50:24.624Z,77.32
2019-05-01T04:53:01.443Z,77.25
2019-05-01T04:55:37.019Z,78.21
2019-05-01T04:58:12.335Z,77.65
2019-05-01T05:00:47.398Z,77.60
2019-05-01T05:03:24.542Z,77.43
2019-05-01T05:06:00.343Z,78.51
2019-05-01T05:08:36.579Z,77.14
2019-05-01T05:11:17.106Z,76.96
2019-05-01T05:14:11.939Z,77.87
2019-05-01T05:17:14.845Z,77.33
2019-05-01T05:19:50.358Z,77.86
2019-05-01T05:23:00.721Z,77.50
2019-05-01T05:25:35.979Z,77.62
2019-05-01T05:28:13.248Z,77.71
2019-05-01T05:30:51.397Z,77.09
2019-05-01T05:33:29.719Z,78.61
2019-05-01T05:36:07.279Z,77.54
2019-05-01T05:38:51.619Z,76.66
2019-05-01T05:41:29.306Z,76.46
2019-05-01T05:44:04.801Z,75.74
2019-05-01T05:46:39.769Z,76.34
2019-05-01T05:49:51.731Z,76.55
2019-05-01T05:52:55.875Z,76.02
2019-05-01T05:55:42.379Z,75.67
2019-05-01T05:58:39.151Z,75.98
2019-05-01T06:01:40.438Z,76.37
2019-05-01T06:04:30.527Z,76.26
2019-05-01T06:07:26.690Z,74.59
2019-05-01T06:10:23.223Z,74.82
2019-05-01T06:13:29.260Z,74.50
2019-05-01T06:16:20.226Z,75.00
2019-05-01T06:19:20.186Z,75.21
2019-05-01T06:22:13.185Z,75.41
2019-05-01T06:25:24.781Z,75.51
2019-05-01T06:27:57.446Z,75.02
2019-05-01T06:30:32.625Z,74.10
2019-05-01T06:33:09.394Z,73.79
2019-05-01T06:35:44.396Z,73.99
2019-05-01T06:38:31.478Z,73.52
2019-05-01T06:41:07.173Z,73.05
2019-05-01T06:44:02.237Z,73.19
2019-05-01T06:47:13.579Z,73.07
2019-05-01T06:50:15.025Z,72.55
2019-05-01T06:52:50.865Z,73.33
2019-05-01T06:55:28.907Z,73.79
2019-05-01T06:58:04.306Z,72.26
2019-05-01T07:00:43.045Z,72.24
2019-05-01T07:03:19.970Z,72.37
2019-05-01T07:05:56.285Z,74.42
2019-05-01T07:08:34.290Z,73.02
2019-05-01T07:11:10.848Z,73.56
2019-05-01T07:13:51.744Z,72.12
2019-05-01T07:16:26.745Z,71.80
2019-05-01T07:19:05.996Z,71.82
2019-05-01T07:21:41.719Z,71.89
2019-05-01T07:24:17.137Z,72.33
2019-05-01T07:26:53.310Z,71.42
2019-05-01T07:29:32.816Z,70.77
2019-05-01T07:32:07.594Z,70.63
2019-05-01T07:34:42.925Z,71.05
2019-05-01T07:37:20.777Z,69.90
2019-05-01T07:39:55.362Z,70.82
2019-05-01T07:42:33.110Z,71.47
2019-05-01T07:45:38.929Z,70.10
2019-05-01T07:48:11.565Z,70.14
2019-05-01T07:50:49.930Z,70.54
2019-05-01T07:53:28.389Z,69.00
2019-05-01T07:56:03.568Z,68.68
2019-05-01T07:58:39.757Z,69.09
2019-05-01T08:01:20.152Z,69.57
2019-05-01T08:03:55.285Z,68.95
2019-05-01T08:06:30.284Z,68.43
2019-05-01T08:09:11.331Z,68.45
2019-05-01T08:11:45.275Z,69.36
2019-05-01T08:14:20.609Z,69.36
2019-05-01T08:16:55.646Z,69.75
2019-05-01T08:19:39.404Z,69.62
2019-05-01T08:22:23.383Z,70.90
2019-05-01T08:25:01.276Z,69.90
2019-05-01T08:28:01.411Z,70.31
2019-05-01T08:30:52.839Z,70.00
2019-05-01T08:34:07.412Z,69.62
2019-05-01T08:36:46.800Z,69.71
2019-05-01T08:39:19.139Z,70.68
2019-05-01T08:41:54.141Z,71.28
2019-05-01T08:45:21.060Z,70.95
2019-05-01T08:48:03.853Z,71.56
2019-05-01T08:50:39.991Z,69.81
2019-05-01T08:53:22.004Z,71.52
2019-05-01T08:55:54.906Z,70.48
2019-05-01T08:58:29.929Z,69.86
2019-05-01T09:01:05.781Z,68.96
2019-05-01T09:03:41.075Z,70.15
2019-05-01T09:06:16.125Z,69.61
2019-05-01T09:08:51.284Z,70.20
2019-05-01T09:11:26.378Z,68.66
2019-05-01T09:14:01.714Z,69.31
2019-05-01T09:16:36.678Z,68.47
2019-05-01T09:19:11.867Z,68.76
2019-05-01T09:21:51.152Z,67.85
2019-05-01T09:24:28.106Z,67.83
2019-05-01T09:27:29.576Z,68.15
2019-05-01T09:30:05.900Z,66.14
2019-05-01T09:33:11.105Z,66.42
2019-05-01T09:35:46.786Z,65.95
2019-05-01T09:38:22.029Z,66.56
2019-05-01T09:40:57.038Z,66.71
2019-05-01T09:43:35.702Z,66.42
2019-05-01T09:46:08.951Z,66.62
2019-05-01T09:48:45.020Z,66.98
2019-05-01T09:51:37.492Z,68.12
2019-05-01T09:54:18.472Z,68.53
2019-05-01T09:56:56.389Z,67.61
2019-05-01T09:59:31.657Z,67.72
2019-05-01T10:02:07.837Z,67.25
2019-05-01T10:04:43.981Z,69.14
2019-05-01T10:07:18.967Z,68.86
2019-05-01T10:09:54.143Z,69.06
2019-05-01T10:12:29.138Z,68.41
2019-05-01T10:15:04.446Z,68.13
2019-05-01T10:17:39.623Z,67.68
2019-05-01T10:20:14.719Z,67.55
2019-05-01T10:22:49.962Z,68.28
2019-05-01T10:25:24.946Z,66.45
2019-05-01T10:28:07.136Z,67.91
2019-05-01T10:31:07.039Z,68.49
2019-05-01T10:33:46.239Z,68.92
2019-05-01T10:36:38.608Z,67.43
2019-05-01T10:39:16.028Z,67.62
2019-05-01T10:41:50.847Z,67.58
2019-05-01T10:44:25.846Z,66.99
2019-05-01T10:47:02.079Z,67.63
2019-05-01T10:49:37.366Z,67.72
2019-05-01T10:52:14.378Z,67.10
2019-05-01T10:54:49.208Z,67.34
2019-05-01T10:57:24.346Z,67.89
2019-05-01T10:59:59.484Z,67.38
2019-05-01T11:02:35.311Z,66.77
2019-05-01T11:05:10.521Z,66.37
2019-05-01T11:07:45.550Z,65.39
2019-05-01T11:10:21.520Z,65.67
2019-05-01T11:12:56.486Z,66.15
2019-05-01T11:15:32.690Z,66.75
2019-05-01T11:18:07.748Z,65.67
2019-05-01T11:20:43.784Z,66.22
2019-05-01T11:23:18.776Z,66.40
2019-05-01T11:25:54.070Z,65.93
2019-05-01T11:28:29.050Z,65.26
2019-05-01T11:31:04.724Z,65.83
2019-05-01T11:33:58.538Z,65.39
2019-05-01T11:36:43.065Z,65.69
2019-05-01T11:39:40.801Z,65.87
2019-05-01T11:42:16.692Z,64.39
2019-05-01T11:44:51.920Z,64.83
2019-05-01T11:47:26.965Z,63.71
2019-05-01T11:50:02.122Z,63.92
2019-05-01T11:52:37.094Z,63.92
2019-05-01T11:55:13.787Z,64.39
2019-05-01T11:57:48.944Z,65.24
2019-05-01T12:00:24.460Z,65.87
2019-05-01T12:02:59.446Z,65.36
2019-05-01T12:05:34.721Z,66.42
2019-05-01T12:08:09.778Z,65.94
2019-05-01T12:10:44.956Z,65.15
2019-05-01T12:13:19.926Z,65.45
2019-05-01T12:16:02.559Z,64.08
2019-05-01T12:18:37.649Z,63.30
2019-05-01T12:21:12.882Z,65.41
2019-05-01T12:23:47.873Z,65.41
2019-05-01T12:26:23.196Z,66.03
2019-05-01T12:28:58.488Z,66.25
2019-05-01T12:31:34.272Z,65.89
2019-05-01T12:34:09.356Z,65.84
2019-05-01T12:36:45.478Z,65.82
2019-05-01T12:39:20.480Z,64.53
2019-05-01T12:41:59.380Z,64.06
2019-05-01T12:44:34.988Z,63.33
2019-05-01T12:47:15.779Z,63.70
2019-05-01T12:49:51.929Z,63.16
2019-05-01T12:52:45.899Z,65.23
2019-05-01T12:55:27.858Z,65.71
2019-05-01T12:58:03.068Z,65.01
2019-05-01T13:00:46.175Z,64.15
2019-05-01T13:03:55.604Z,66.09
2019-05-01T13:06:30.617Z,65.19
2019-05-01T13:09:07.458Z,65.74
2019-05-01T13:11:43.597Z,65.58
2019-05-01T13:14:18.691Z,64.45
2019-05-01T13:16:53.925Z,64.61
2019-05-01T13:19:28.935Z,64.70
2019-05-01T13:22:05.391Z,66.05
2019-05-01T13:24:50.204Z,66.37
2019-05-01T13:27:35.046Z,66.00
2019-05-01T13:30:27.524Z,65.39
2019-05-01T13:33:02.739Z,66.24
2019-05-01T13:35:37.746Z,65.83
2019-05-01T13:38:12.959Z,65.07
2019-05-01T13:40:47.948Z,65.94
2019-05-01T13:43:23.054Z,65.64
2019-05-01T13:45:58.063Z,63.58
2019-05-01T13:48:33.362Z,62.91
2019-05-01T13:51:08.376Z,63.05
2019-05-01T13:53:43.605Z,63.58
2019-05-01T13:56:18.638Z,65.12
2019-05-01T13:58:53.832Z,64.28
2019-05-01T14:01:28.915Z,62.99
2019-05-01T14:04:04.011Z,62.08
2019-05-01T14:06:40.068Z,61.95
2019-05-01T14:09:16.941Z,61.83
2019-05-01T14:11:52.243Z,61.71
2019-05-01T14:14:27.542Z,61.72
2019-05-01T14:17:03.568Z,63.65
2019-05-01T14:19:40.572Z,63.53
2019-05-01T14:22:37.614Z,62.55
2019-05-01T14:25:13.921Z,63.39
2019-05-01T14:27:49.199Z,64.25
2019-05-01T14:30:24.207Z,64.26
2019-05-01T14:32:59.445Z,64.46
2019-05-01T14:35:34.635Z,64.38
2019-05-01T14:38:09.715Z,64.03
2019-05-01T14:40:45.491Z,65.34
2019-05-01T14:43:21.905Z,64.98
2019-05-01T14:45:56.955Z,64.99
2019-05-01T14:48:33.743Z,63.74
2019-05-01T14:51:08.855Z,64.06
2019-05-01T14:53:44.097Z,62.87
2019-05-01T14:56:23.981Z,64.00
2019-05-01T14:59:00.004Z,63.61
2019-05-01T15:01:35.370Z,61.88
2019-05-01T15:04:10.409Z,63.76
2019-05-01T15:06:45.691Z,64.04
2019-05-01T15:09:22.242Z,64.84
2019-05-01T15:11:57.302Z,64.08
2019-05-01T15:15:01.997Z,65.04
2019-05-01T15:17:51.787Z,64.17
2019-05-01T15:20:26.967Z,64.78
2019-05-01T15:23:04.701Z,63.91
2019-05-01T15:25:39.768Z,64.35
2019-05-01T15:28:15.776Z,63.06
2019-05-01T15:30:50.959Z,63.18
2019-05-01T15:33:26.937Z,63.44
2019-05-01T15:36:02.017Z,63.86
2019-05-01T15:38:37.057Z,65.42
2019-05-01T15:41:45.295Z,65.63
2019-05-01T15:44:32.495Z,65.35
2019-05-01T15:47:08.319Z,64.34
2019-05-01T15:49:43.548Z,65.04
2019-05-01T15:52:18.726Z,65.59
2019-05-01T15:54:53.957Z,64.96
2019-05-01T15:57:29.011Z,66.42
2019-05-01T16:00:05.178Z,66.73
2019-05-01T16:02:40.427Z,65.98
2019-05-01T16:05:15.728Z,66.20
2019-05-01T16:07:50.894Z,65.30
2019-05-01T16:10:30.527Z,64.85
2019-05-01T16:13:06.005Z,66.03
2019-05-01T16:15:41.051Z,65.77
2019-05-01T16:18:16.084Z,66.03
2019-05-01T16:20:51.073Z,67.33
2019-05-01T16:23:26.156Z,67.33
2019-05-01T16:26:01.279Z,66.31
2019-05-01T16:28:36.381Z,66.49
2019-05-01T16:31:11.617Z,66.35
2019-05-01T16:33:53.036Z,67.09
2019-05-01T16:36:28.174Z,66.90
2019-05-01T16:39:22.846Z,67.51
2019-05-01T16:42:00.651Z,67.72
2019-05-01T16:44:35.969Z,67.32
2019-05-01T16:47:11.295Z,67.58
2019-05-01T16:49:46.323Z,66.41
2019-05-01T16:52:25.373Z,66.86
2019-05-01T16:55:00.591Z,66.99
2019-05-01T16:57:35.665Z,67.47
2019-05-01T17:00:13.349Z,67.88
2019-05-01T17:03:01.071Z,65.86
2019-05-01T17:06:04.458Z,66.43
2019-05-01T17:08:58.087Z,67.33
2019-05-01T17:11:34.027Z,67.59
2019-05-01T17:14:09.159Z,67.66
2019-05-01T17:16:44.162Z,67.38
2019-05-01T17:19:19.164Z,67.16
2019-05-01T17:21:54.367Z,67.33
2019-05-01T17:24:29.372Z,67.17
2019-05-01T17:27:04.684Z,68.08
2019-05-01T17:29:39.663Z,68.68
2019-05-01T17:32:16.606Z,67.58
2019-05-01T17:34:51.795Z,67.41
2019-05-01T17:37:26.962Z,67.19
2019-05-01T17:40:02.215Z,68.11
2019-05-01T17:43:08.121Z,67.09
2019-05-01T17:45:40.712Z,67.12
2019-05-01T17:48:15.718Z,68.20
2019-05-01T17:50:55.139Z,68.21
2019-05-01T17:53:27.407Z,67.82
2019-05-01T17:56:02.553Z,67.51
2019-05-01T17:58:37.502Z,68.97
2019-05-01T18:01:33.118Z,67.90
2019-05-01T18:04:35.049Z,68.18
2019-05-01T18:07:10.311Z,68.80
2019-05-01T18:09:45.498Z,68.40
2019-05-01T18:12:23.481Z,68.70
2019-05-01T18:14:57.913Z,68.49
2019-05-01T18:17:33.706Z,68.63
2019-05-01T18:20:09.073Z,68.60
2019-05-01T18:23:13.443Z,68.93
2019-05-01T18:25:55.810Z,69.34
2019-05-01T18:28:43.802Z,68.59
2019-05-01T18:31:27.934Z,69.49
2019-05-01T18:34:06.300Z,68.27
2019-05-01T18:36:46.692Z,68.95
2019-05-01T18:39:29.129Z,68.92
2019-05-01T18:42:10.087Z,68.83
2019-05-01T18:44:47.553Z,68.17
2019-05-01T18:47:22.727Z,68.43
2019-05-01T18:49:57.715Z,68.55
2019-05-01T18:52:33.423Z,68.57
2019-05-01T18:55:08.846Z,68.57
2019-05-01T18:57:44.044Z,68.23
2019-05-01T19:00:19.117Z,68.17
2019-05-01T19:02:54.393Z,68.70
2019-05-01T19:05:29.353Z,68.44
2019-05-01T19:08:04.662Z,69.76
2019-05-01T19:10:39.890Z,68.64
2019-05-01T19:13:16.533Z,68.64
2019-05-01T19:15:51.852Z,68.91
2019-05-01T19:18:26.948Z,68.64
2019-05-01T19:21:02.130Z,68.84
2019-05-01T19:23:37.727Z,68.23
2019-05-01T19:26:14.659Z,69.79
2019-05-01T19:28:49.640Z,68.42
2019-05-01T19:31:25.886Z,68.79
2019-05-01T19:34:01.083Z,69.50
2019-05-01T19:36:40.397Z,69.51
2019-05-01T19:39:13.471Z,68.65
2019-05-01T19:41:54.450Z,69.20
2019-05-01T19:44:25.365Z,68.78
2019-05-01T19:47:00.462Z,68.90
2019-05-01T19:49:37.041Z,68.81
2019-05-01T19:52:19.927Z,68.27
2019-05-01T19:54:55.248Z,69.17
2019-05-01T19:57:30.695Z,68.59
2019-05-01T20:00:06.703Z,69.00
2019-05-01T20:02:44.043Z,69.62
2019-05-01T20:05:21.930Z,69.79
2019-05-01T20:07:56.332Z,69.07
2019-05-01T20:10:33.384Z,68.49
2019-05-01T20:13:12.036Z,68.92
2019-05-01T20:15:45.719Z,68.16
2019-05-01T20:18:21.883Z,68.94
2019-05-01T20:20:56.895Z,69.54
2019-05-01T20:23:33.258Z,69.98
2019-05-01T20:26:09.284Z,70.06
2019-05-01T20:28:44.357Z,69.79
2019-05-01T20:31:21.004Z,69.54
2019-05-01T20:33:57.562Z,69.27
2019-05-01T20:36:32.720Z,69.49
2019-05-01T20:39:09.284Z,69.88
2019-05-01T20:41:44.648Z,69.96
2019-05-01T20:44:23.974Z,70.15
2019-05-01T20:46:58.509Z,69.69
2019-05-01T20:49:36.374Z,70.07
2019-05-01T20:52:10.860Z,70.68
2019-05-01T20:54:45.959Z,70.79
2019-05-01T20:57:29.289Z,70.57
2019-05-01T21:00:05.897Z,70.32
2019-05-01T21:02:43.112Z,70.67
2019-05-01T21:05:35.020Z,71.00
2019-05-01T21:08:15.774Z,70.58
2019-05-01T21:11:05.881Z,70.85
2019-05-01T21:14:21.736Z,70.69
2019-05-01T21:16:51.252Z,70.71
2019-05-01T21:19:28.758Z,69.44
2019-05-01T21:22:04.028Z,70.53
2019-05-01T21:24:39.088Z,69.91
2019-05-01T21:27:14.190Z,70.67
2019-05-01T21:29:49.196Z,70.15
2019-05-01T21:32:27.426Z,70.05
2019-05-01T21:35:01.124Z,70.10
2019-05-01T21:37:36.096Z,70.75
2019-05-01T21:40:12.871Z,71.23
2019-05-01T21:42:52.427Z,70.75
2019-05-01T21:45:24.697Z,70.41
2019-05-01T21:47:59.659Z,70.31
2019-05-01T21:50:34.951Z,70.59
2019-05-01T21:53:09.916Z,71.05
2019-05-01T21:55:44.932Z,70.48
2019-05-01T21:58:21.144Z,70.00
2019-05-01T22:00:59.628Z,70.99
2019-05-01T22:03:34.541Z,70.89
2019-05-01T22:06:11.350Z,70.62
2019-05-01T22:08:46.307Z,70.37
2019-05-01T22:11:21.584Z,70.38
2019-05-01T22:14:00.099Z,70.51
2019-05-01T22:16:34.208Z,70.23
2019-05-01T22:19:14.482Z,70.14
2019-05-01T22:22:07.168Z,70.44
2019-05-01T22:25:03.988Z,71.46
2019-05-01T22:27:45.655Z,71.35
2019-05-01T22:30:42.291Z,70.81
2019-05-01T22:33:18.582Z,70.49
2019-05-01T22:35:53.885Z,70.26
2019-05-01T22:38:29.610Z,70.44
2019-05-01T22:41:11.191Z,71.66
2019-05-01T22:43:46.166Z,71.47
2019-05-01T22:46:28.300Z,71.57
2019-05-01T22:49:03.592Z,71.21
2019-05-01T22:51:38.592Z,71.75
2019-05-01T22:54:13.794Z,71.86
2019-05-01T22:56:50.382Z,71.46
2019-05-01T22:59:25.557Z,72.15
2019-05-01T23:02:07.724Z,72.37
2019-05-01T23:04:43.016Z,72.17
2019-05-01T23:07:20.874Z,72.70
2019-05-01T23:09:59.277Z,72.75
2019-05-01T23:12:34.129Z,71.53
2019-05-01T23:15:15.717Z,72.10
2019-05-01T23:17:50.972Z,72.91
2019-05-01T23:21:00.599Z,72.51
2019-05-01T23:23:36.537Z,73.04
2019-05-01T23:26:16.546Z,73.17
2019-05-01T23:28:48.671Z,72.32
2019-05-01T23:31:58.635Z,73.29
2019-05-01T23:34:35.213Z,74.23
2019-05-01T23:37:12.911Z,73.85
2019-05-01T23:39:48.715Z,74.17
2019-05-01T23:42:59.683Z,73.94
2019-05-01T23:45:35.465Z,74.21
2019-05-01T23:48:11.583Z,73.69
2019-05-01T23:50:48.791Z,73.87
2019-05-01T23:53:23.902Z,74.01
2019-05-01T23:55:59.961Z,74.16
2019-05-01T23:58:35.562Z,74.29
